This is the latest recevied weather packets stored in our database for station/object DK8HC-WX. If no packets are shown the sender has not sent any weather packets the latest 10 day(s).
| Time | Temp. | Humidity | Pressure | Rain* | Wind** | Luminosity | Snow |
|---|---|---|---|---|---|---|---|
| 1777805505 | 28.33° C | 37% | 1013.8 hPa | - | - | - | - |
| 1777804905 | 27.78° C | 44% | 1014.1 hPa | - | - | - | - |
| 1777804305 | 27.78° C | 46% | 1014.2 hPa | - | - | - | - |
| 1777803705 | 28.33° C | 48% | 1014.4 hPa | - | - | - | - |
| 1777803104 | 27.22° C | 48% | 1014.5 hPa | - | - | - | - |
| 1777802504 | 27.78° C | 48% | 1014.5 hPa | - | - | - | - |
| 1777801905 | 28.89° C | 48% | 1014.7 hPa | - | - | - | - |
| 1777801304 | 26.67° C | 53% | 1014.5 hPa | - | - | - | - |
| 1777800704 | 25.56° C | 60% | 1014.6 hPa | - | - | - | - |
| 1777800105 | 26.11° C | 58% | 1014.6 hPa | - | - | - | - |
| 1777799504 | 27.78° C | 59% | 1014.9 hPa | - | - | - | - |
| 1777798904 | 25.56° C | 67% | 1014.5 hPa | - | - | - | - |
| 1777798304 | 25.56° C | 74% | 1014.7 hPa | - | - | - | - |
| 1777797704 | 23.33° C | 85% | 1014.6 hPa | - | - | - | - |
| 1777797104 | 22.78° C | 82% | 1014.8 hPa | - | - | - | - |
| 1777796505 | 23.89° C | 78% | 1014.4 hPa | - | - | - | - |
| 1777795904 | 22.78° C | 83% | 1014.6 hPa | - | - | - | - |
| 1777795304 | 23.89° C | 82% | 1014.5 hPa | - | - | - | - |
| 1777794704 | 23.33° C | 89% | 1014.3 hPa | - | - | - | - |
| 1777794108 | 22.78° C | 89% | 1014.3 hPa | - | - | - | - |
| 1777793504 | 22.22° C | 91% | 1014 hPa | - | - | - | - |
| 1777792904 | 23.89° C | 89% | 1014.4 hPa | - | - | - | - |
| 1777792304 | 23.89° C | 94% | 1014.4 hPa | - | - | - | - |
| 1777791704 | 22.78° C | 100% | 1014.2 hPa | - | - | - | - |
| 1777791104 | 21.67° C | 100% | 1014.1 hPa | - | - | - | - |
* Rain since midnight (hover to see other rain measurements)
** Current wind speed in m/s (hover to see current wind gust speed)